Time;durP1;ratioP1;P1;durP2;ratioP2;P2;SDS_P1;SDS_P2;PMS_P1;PMS_P2;Temp;Humidity;BMP_temperature;BMP_pressure;BME280_temperature;BME280_humidity;BME280_pressure;Samples;Min_cycle;Max_cycle;Signal;HPM_P1;HPM_P2
2023/06/19 00:01:24;;;;;;;0.53;0.53;;;;;;;17.97;100.00;95332.53;5070864;28;20430;-68
2023/06/19 00:03:53;;;;;;;0.50;0.30;;;;;;;17.80;100.00;95322.59;5071086;28;20437;-69
2023/06/19 00:06:22;;;;;;;0.90;0.40;;;;;;;17.59;100.00;95333.13;5070865;28;20445;-70
2023/06/19 00:08:52;;;;;;;0.60;0.30;;;;;;;17.49;100.00;95328.03;5070854;28;20481;-69
2023/06/19 00:11:20;;;;;;;0.50;0.43;;;;;;;17.40;100.00;95308.47;5070032;28;20548;-69
2023/06/19 00:13:48;;;;;;;0.50;0.30;;;;;;;17.55;100.00;95332.19;5070994;28;20456;-70
2023/06/19 00:16:17;;;;;;;0.60;0.60;;;;;;;17.37;100.00;95322.50;5070648;28;20958;-69
2023/06/19 00:18:46;;;;;;;1.03;1.03;;;;;;;17.18;100.00;95337.25;5070985;28;20444;-70
2023/06/19 00:21:14;;;;;;;0.60;0.50;;;;;;;16.71;100.00;95328.03;5070448;28;20434;-70
2023/06/19 00:24:02;;;;;;;0.60;0.50;;;;;;;16.46;100.00;95330.25;5071424;28;20429;-70
2023/06/19 00:26:30;;;;;;;0.60;0.30;;;;;;;16.20;100.00;95339.16;5044899;28;20430;-71
2023/06/19 00:28:58;;;;;;;0.60;0.60;;;;;;;16.42;100.00;95336.50;5070554;28;20470;-69
2023/06/19 00:31:28;;;;;;;0.50;0.30;;;;;;;16.32;100.00;95331.38;5070771;28;20452;-70
2023/06/19 00:33:56;;;;;;;0.50;0.40;;;;;;;15.99;100.00;95338.09;5069958;28;20475;-69
2023/06/19 00:36:27;;;;;;;0.87;0.50;;;;;;;15.86;100.00;95329.00;5070704;28;20440;-69
2023/06/19 00:38:56;;;;;;;0.50;0.40;;;;;;;15.86;100.00;95335.13;5070184;28;20507;-69
2023/06/19 00:41:30;;;;;;;1.67;0.67;;;;;;;16.01;100.00;95336.69;5071037;28;20514;-69
2023/06/19 00:43:59;;;;;;;0.90;0.40;;;;;;;16.01;100.00;95339.34;5070202;28;20440;-69
2023/06/19 00:46:27;;;;;;;0.40;0.20;;;;;;;16.47;100.00;95339.03;5070262;28;20570;-69
2023/06/19 00:48:56;;;;;;;0.50;0.40;;;;;;;16.47;100.00;95347.06;5070443;28;20469;-68
2023/06/19 00:51:24;;;;;;;0.40;0.30;;;;;;;16.83;100.00;95339.75;5070514;28;20430;-69
2023/06/19 00:53:53;;;;;;;0.50;0.40;;;;;;;16.89;100.00;95337.75;5069007;28;20433;-68
2023/06/19 00:56:22;;;;;;;0.60;0.40;;;;;;;16.74;100.00;95338.94;5073145;28;20448;-68
2023/06/19 00:58:53;;;;;;;0.77;0.60;;;;;;;16.77;100.00;95350.91;5073972;28;20444;-68
2023/06/19 01:01:23;;;;;;;0.40;0.40;;;;;;;17.07;100.00;95352.78;5073682;28;20441;-67
2023/06/19 01:03:52;;;;;;;0.53;0.53;;;;;;;17.23;100.00;95355.84;5074423;28;20483;-68
2023/06/19 01:06:24;;;;;;;0.40;0.20;;;;;;;17.09;100.00;95351.38;5073491;28;20952;-68
2023/06/19 01:08:57;;;;;;;0.40;0.20;;;;;;;17.05;100.00;95352.31;5073623;28;20975;-68
2023/06/19 01:11:32;;;;;;;0.40;0.30;;;;;;;17.13;100.00;95351.53;5073611;28;20473;-68
2023/06/19 01:14:09;;;;;;;0.43;0.30;;;;;;;17.28;100.00;95350.38;5074237;28;20490;-68
2023/06/19 01:16:38;;;;;;;0.50;0.30;;;;;;;17.18;100.00;95354.09;5072298;28;20437;-68
2023/06/19 01:19:11;;;;;;;0.40;0.30;;;;;;;17.37;100.00;95359.19;5073833;28;20436;-67
2023/06/19 01:21:40;;;;;;;0.90;0.90;;;;;;;17.21;100.00;95353.47;5074052;28;20441;-64
2023/06/19 01:24:10;;;;;;;0.50;0.43;;;;;;;17.36;100.00;95347.69;5073306;28;20445;-64
2023/06/19 01:26:38;;;;;;;0.53;0.47;;;;;;;17.04;100.00;95353.41;5073718;28;20448;-65
2023/06/19 01:29:07;;;;;;;0.53;0.50;;;;;;;16.66;100.00;95355.72;5073187;28;20477;-65
2023/06/19 01:31:39;;;;;;;0.40;0.40;;;;;;;16.84;100.00;95351.25;5073706;28;20437;-65
2023/06/19 01:34:11;;;;;;;0.40;0.30;;;;;;;16.77;100.00;95310.78;5073625;28;20532;-65
2023/06/19 01:36:40;;;;;;;0.77;0.77;;;;;;;17.00;100.00;95347.88;5073437;28;20440;-65
2023/06/19 01:39:11;;;;;;;0.50;0.30;;;;;;;16.52;100.00;95360.34;5073368;28;20962;-65
2023/06/19 01:41:41;;;;;;;3.77;0.60;;;;;;;16.79;100.00;95364.78;5073426;28;20437;-65
2023/06/19 01:44:09;;;;;;;0.40;0.30;;;;;;;17.02;100.00;95345.69;5072779;28;20988;-65
2023/06/19 01:46:38;;;;;;;0.43;0.40;;;;;;;17.27;100.00;95346.88;5073266;28;20951;-65
2023/06/19 01:49:08;;;;;;;0.50;0.30;;;;;;;17.07;100.00;95356.28;5046819;28;20574;-65
2023/06/19 01:51:37;;;;;;;0.50;0.40;;;;;;;17.07;100.00;95361.63;5072612;28;20495;-65
2023/06/19 01:54:05;;;;;;;0.50;0.27;;;;;;;17.16;100.00;95358.97;5073171;28;20445;-65
2023/06/19 01:56:35;;;;;;;0.40;0.30;;;;;;;17.12;100.00;95361.50;5072678;28;20437;-65
2023/06/19 01:59:04;;;;;;;0.40;0.30;;;;;;;17.22;100.00;95368.47;5073015;28;20456;-65
2023/06/19 02:01:33;;;;;;;0.40;0.30;;;;;;;17.26;100.00;95365.94;5072762;28;20969;-65
2023/06/19 02:04:01;;;;;;;0.40;0.20;;;;;;;17.28;100.00;95364.53;5089616;28;20442;-65
2023/06/19 02:06:31;;;;;;;0.40;0.30;;;;;;;17.26;100.00;95368.59;5075252;28;20434;-65
2023/06/19 02:08:59;;;;;;;0.63;0.30;;;;;;;16.78;100.00;95365.88;5072725;28;20473;-65
2023/06/19 02:11:28;;;;;;;0.40;0.30;;;;;;;16.67;100.00;95370.69;5072335;28;20517;-65
2023/06/19 02:13:58;;;;;;;0.50;0.37;;;;;;;16.75;100.00;95371.81;5072702;28;20511;-65
2023/06/19 02:16:26;;;;;;;0.40;0.30;;;;;;;16.85;100.00;95366.25;5072931;28;20793;-65
2023/06/19 02:18:55;;;;;;;0.50;0.40;;;;;;;16.74;100.00;95365.69;5072932;28;20451;-65
2023/06/19 02:21:23;;;;;;;0.40;0.30;;;;;;;16.65;100.00;95362.16;5072113;28;20446;-65
2023/06/19 02:23:52;;;;;;;0.40;0.30;;;;;;;16.68;100.00;95372.25;5072270;28;20491;-65
2023/06/19 02:26:20;;;;;;;0.50;0.43;;;;;;;16.70;100.00;95369.28;5072364;28;20444;-65
2023/06/19 02:28:49;;;;;;;0.40;0.30;;;;;;;16.86;100.00;95362.44;5072410;28;20445;-64
2023/06/19 02:31:18;;;;;;;0.40;0.30;;;;;;;16.96;100.00;95362.19;5072498;28;20442;-65
2023/06/19 02:33:47;;;;;;;0.40;0.30;;;;;;;16.72;100.00;95367.09;5058337;28;20485;-65
2023/06/19 02:36:19;;;;;;;0.40;0.30;;;;;;;16.72;100.00;95364.44;5072279;28;20863;-65
2023/06/19 02:38:47;;;;;;;0.70;0.70;;;;;;;16.85;100.00;95366.25;5072320;28;20461;-67
2023/06/19 02:41:17;;;;;;;0.40;0.30;;;;;;;16.96;100.00;95370.22;5072431;28;20441;-65
2023/06/19 02:43:46;;;;;;;0.60;0.40;;;;;;;16.90;100.00;95366.88;5072344;28;20507;-65
2023/06/19 02:46:15;;;;;;;0.40;0.30;;;;;;;16.88;100.00;95376.31;5071982;28;20958;-66
2023/06/19 02:48:44;;;;;;;0.40;0.30;;;;;;;16.94;100.00;95378.56;5058717;28;20440;-66
2023/06/19 02:51:13;;;;;;;0.73;0.37;;;;;;;16.39;100.00;95391.38;5071703;28;20526;-66
2023/06/19 02:53:41;;;;;;;0.40;0.20;;;;;;;16.30;100.00;95393.22;5071734;28;20429;-66
2023/06/19 02:56:10;;;;;;;0.60;0.40;;;;;;;16.42;100.00;95392.66;5071142;28;20433;-66
2023/06/19 02:58:39;;;;;;;0.50;0.30;;;;;;;16.51;100.00;95394.34;5071339;28;20442;-66
2023/06/19 03:01:08;;;;;;;0.40;0.30;;;;;;;16.44;100.00;95399.28;5071563;28;20445;-65
2023/06/19 03:03:37;;;;;;;0.50;0.30;;;;;;;16.37;100.00;95401.59;5071840;28;20434;-66
2023/06/19 03:06:09;;;;;;;0.40;0.20;;;;;;;16.15;100.00;95401.59;5071967;28;20473;-66
2023/06/19 03:08:38;;;;;;;0.40;0.30;;;;;;;16.27;100.00;95399.16;5071788;28;20462;-66
2023/06/19 03:11:07;;;;;;;0.53;0.50;;;;;;;16.48;100.00;95400.28;5070693;28;20497;-65
2023/06/19 03:13:46;;;;;;;0.70;0.50;;;;;;;16.74;100.00;95399.69;5071306;28;20438;-65
2023/06/19 03:16:15;;;;;;;0.50;0.33;;;;;;;16.80;100.00;95398.50;5071663;28;20433;-65
2023/06/19 03:18:44;;;;;;;0.40;0.20;;;;;;;16.93;100.00;95394.91;5071223;28;20438;-65
2023/06/19 03:21:15;;;;;;;0.50;0.40;;;;;;;16.93;100.00;95387.69;5071383;28;20961;-65
2023/06/19 03:23:43;;;;;;;0.40;0.30;;;;;;;17.00;100.00;95393.38;5071615;28;20438;-65
2023/06/19 03:26:12;;;;;;;1.00;0.60;;;;;;;16.99;100.00;95388.34;5071132;28;20434;-66
2023/06/19 03:28:40;;;;;;;0.73;0.73;;;;;;;16.63;100.00;95396.47;5071140;28;20437;-65
2023/06/19 03:31:09;;;;;;;0.57;0.40;;;;;;;16.76;100.00;95400.19;5070411;28;20483;-66
2023/06/19 03:33:37;;;;;;;0.40;0.27;;;;;;;16.89;100.00;95402.78;5070649;28;20495;-64
2023/06/19 03:36:06;;;;;;;0.87;0.40;;;;;;;16.94;100.00;95396.50;5070544;28;20434;-65
2023/06/19 03:38:36;;;;;;;0.50;0.40;;;;;;;16.76;100.00;95403.66;5070544;28;20445;-62
2023/06/19 03:41:04;;;;;;;0.60;0.40;;;;;;;16.91;100.00;95405.16;5071080;28;20455;-65
2023/06/19 03:43:32;;;;;;;0.40;0.40;;;;;;;17.02;100.00;95398.44;5070720;28;20442;-65
2023/06/19 03:46:01;;;;;;;0.70;0.70;;;;;;;16.91;100.00;95407.84;5070649;28;20441;-65
2023/06/19 03:48:29;;;;;;;0.57;0.40;;;;;;;17.15;100.00;95401.03;5070873;28;20441;-65
2023/06/19 03:50:57;;;;;;;0.80;0.80;;;;;;;16.87;100.00;95382.78;5062472;28;20982;-65
2023/06/19 03:53:26;;;;;;;0.83;0.83;;;;;;;16.87;100.00;95398.84;5065823;28;20498;-64
2023/06/19 03:55:56;;;;;;;2.67;0.30;;;;;;;16.86;100.00;95394.56;5070944;28;20875;-64
2023/06/19 03:58:24;;;;;;;0.40;0.30;;;;;;;17.09;100.00;95393.44;5071207;28;20518;-65
2023/06/19 04:00:52;;;;;;;0.40;0.20;;;;;;;17.24;100.00;95393.03;5071405;28;20479;-65
2023/06/19 04:03:21;;;;;;;0.77;0.50;;;;;;;17.41;100.00;95395.78;5070930;28;20429;-64
2023/06/19 04:05:49;;;;;;;0.50;0.40;;;;;;;17.49;100.00;95402.25;5070776;28;20442;-63
2023/06/19 04:08:18;;;;;;;0.60;0.40;;;;;;;17.36;100.00;95400.47;5071005;28;20445;-65
2023/06/19 04:10:46;;;;;;;0.73;0.73;;;;;;;17.47;100.00;95402.59;5070663;28;20515;-64
2023/06/19 04:13:16;;;;;;;0.40;0.30;;;;;;;17.59;100.00;95408.16;5089394;28;20447;-64
2023/06/19 04:15:45;;;;;;;0.60;0.30;;;;;;;17.66;100.00;95394.31;5071363;28;20595;-63
2023/06/19 04:18:17;;;;;;;0.50;0.30;;;;;;;17.72;100.00;95395.75;5045260;28;20449;-60
2023/06/19 04:20:45;;;;;;;0.40;0.30;;;;;;;17.85;100.00;95399.41;5070441;28;20520;-60
2023/06/19 04:23:13;;;;;;;0.63;0.63;;;;;;;17.96;100.00;95388.06;5070265;28;20442;-60
2023/06/19 04:25:42;;;;;;;0.50;0.33;;;;;;;18.06;100.00;95382.41;5069619;28;20468;-60
2023/06/19 04:28:10;;;;;;;0.50;0.40;;;;;;;17.89;100.00;95389.63;5070648;28;20446;-62
2023/06/19 04:30:40;;;;;;;1.00;0.30;;;;;;;17.72;100.00;95401.91;5071323;28;20465;-61
2023/06/19 04:33:08;;;;;;;1.23;1.23;;;;;;;17.02;100.00;95403.81;5074544;28;20440;-61
2023/06/19 04:35:39;;;;;;;0.80;0.70;;;;;;;17.36;100.00;95403.97;5073710;28;20528;-61
2023/06/19 04:38:08;;;;;;;0.50;0.30;;;;;;;17.58;100.00;95406.59;5074109;28;20445;-61
2023/06/19 04:40:37;;;;;;;0.80;0.40;;;;;;;17.31;100.00;95406.78;5073715;28;20470;-60
2023/06/19 04:43:06;;;;;;;0.50;0.40;;;;;;;17.29;100.00;95406.28;5074365;28;20851;-60
2023/06/19 04:45:34;;;;;;;0.60;0.50;;;;;;;17.85;100.00;95399.41;5074183;28;20437;-60
2023/06/19 04:48:05;;;;;;;0.70;0.50;;;;;;;17.64;100.00;95405.34;5074602;28;20958;-60
2023/06/19 04:50:33;;;;;;;0.40;0.30;;;;;;;17.77;100.00;95399.09;5074000;28;20465;-59
2023/06/19 04:53:02;;;;;;;0.50;0.37;;;;;;;18.21;100.00;95402.63;5074101;28;20445;-59
2023/06/19 04:55:30;;;;;;;0.70;0.50;;;;;;;17.72;100.00;95401.13;5073767;28;20784;-59
2023/06/19 04:57:58;;;;;;;1.40;0.63;;;;;;;17.31;100.00;95405.97;5074100;28;20444;-59
2023/06/19 05:00:27;;;;;;;2.07;0.60;;;;;;;17.64;100.00;95397.31;5074003;28;20449;-59
2023/06/19 05:02:59;;;;;;;0.73;0.60;;;;;;;18.18;100.00;95405.94;5073803;28;20574;-58
2023/06/19 05:05:30;;;;;;;0.57;0.47;;;;;;;18.66;100.00;95403.09;5074190;28;20445;-60
2023/06/19 05:07:58;;;;;;;0.50;0.30;;;;;;;18.99;100.00;95399.59;5073442;28;20795;-59
2023/06/19 05:10:26;;;;;;;0.60;0.50;;;;;;;18.64;100.00;95394.59;5073573;28;20526;-57
2023/06/19 05:12:54;;;;;;;0.70;0.70;;;;;;;18.34;100.00;95390.94;5073349;28;20822;-58
2023/06/19 05:15:23;;;;;;;0.80;0.80;;;;;;;18.17;100.00;95388.25;5073957;28;20442;-58
2023/06/19 05:17:51;;;;;;;4.97;1.53;;;;;;;17.69;100.00;95385.66;5074030;28;20898;-57
2023/06/19 05:20:20;;;;;;;5.00;1.60;;;;;;;17.67;100.00;95394.00;5073820;28;20433;-57
2023/06/19 05:22:50;;;;;;;1.57;1.47;;;;;;;17.83;100.00;95391.69;5073567;28;20445;-57
2023/06/19 05:25:18;;;;;;;2.20;0.80;;;;;;;17.46;100.00;95384.91;5073635;28;20438;-58
2023/06/19 05:27:47;;;;;;;1.47;1.30;;;;;;;17.95;100.00;95386.50;5073476;28;20528;-58
2023/06/19 05:30:15;;;;;;;0.70;0.67;;;;;;;18.68;100.00;95382.88;5073556;28;20438;-57
2023/06/19 05:32:44;;;;;;;0.87;0.87;;;;;;;19.19;100.00;95378.50;5073427;28;20529;-60
2023/06/19 05:35:12;;;;;;;0.60;0.53;;;;;;;18.42;100.00;95369.47;5073856;28;20528;-62
2023/06/19 05:37:43;;;;;;;1.83;1.10;;;;;;;18.60;100.00;95386.38;5073247;28;20445;-61
2023/06/19 05:40:14;;;;;;;0.67;0.67;;;;;;;19.05;100.00;95394.81;5073271;28;20823;-62
2023/06/19 05:42:42;;;;;;;0.70;0.50;;;;;;;18.62;100.00;95392.19;5073640;28;20430;-66
2023/06/19 05:45:11;;;;;;;0.70;0.60;;;;;;;19.16;100.00;95393.38;5073520;28;20471;-66
2023/06/19 05:47:40;;;;;;;0.83;0.70;;;;;;;19.42;100.00;95380.66;5073275;28;20448;-66
2023/06/19 05:50:09;;;;;;;2.53;1.17;;;;;;;19.35;100.00;95387.63;5073416;28;20479;-65
2023/06/19 05:52:41;;;;;;;0.70;0.60;;;;;;;19.37;100.00;95388.91;5073411;28;20479;-66
2023/06/19 05:55:10;;;;;;;0.70;0.60;;;;;;;19.10;100.00;95386.56;5072858;28;20486;-66
2023/06/19 05:57:40;;;;;;;0.40;0.30;;;;;;;19.16;100.00;95382.63;5073288;28;20472;-67
2023/06/19 06:00:12;;;;;;;0.87;0.67;;;;;;;19.30;100.00;95379.72;5072876;28;20495;-66
2023/06/19 06:02:40;;;;;;;0.47;0.40;;;;;;;19.74;100.00;95381.91;5072886;28;20933;-66
2023/06/19 06:05:10;;;;;;;0.60;0.43;;;;;;;20.23;100.00;95377.66;5072426;28;20445;-66
2023/06/19 06:07:38;;;;;;;0.60;0.40;;;;;;;20.42;100.00;95382.56;5072785;28;20495;-66
2023/06/19 06:10:09;;;;;;;0.60;0.37;;;;;;;20.52;100.00;95388.34;5072646;28;20470;-67
2023/06/19 06:12:38;;;;;;;3.30;0.70;;;;;;;20.09;100.00;95394.03;5072494;28;20500;-66
2023/06/19 06:15:09;;;;;;;0.70;0.63;;;;;;;20.37;100.00;95383.56;5073183;28;20441;-66
2023/06/19 06:17:37;;;;;;;1.37;0.40;;;;;;;20.47;100.00;95382.38;5072850;28;20453;-65
2023/06/19 06:20:11;;;;;;;0.87;0.60;;;;;;;20.51;100.00;95380.63;5072312;28;20446;-65
2023/06/19 06:22:39;;;;;;;1.83;0.60;;;;;;;20.93;100.00;95365.94;5081280;28;20413;-65
2023/06/19 06:25:09;;;;;;;0.93;0.40;;;;;;;21.67;98.34;95373.81;5084085;28;20460;-65
2023/06/19 06:27:41;;;;;;;0.53;0.40;;;;;;;21.68;93.54;95367.28;5072161;28;20437;-66
2023/06/19 06:30:13;;;;;;;0.67;0.67;;;;;;;21.88;93.89;95381.81;5072622;28;20591;-64
2023/06/19 06:32:41;;;;;;;0.93;0.60;;;;;;;21.71;92.76;95368.50;5072048;28;20480;-64
2023/06/19 06:35:10;;;;;;;1.70;0.83;;;;;;;22.59;91.50;95371.97;5072317;28;20437;-63
2023/06/19 06:37:38;;;;;;;0.40;0.40;;;;;;;22.96;84.81;95375.31;5071917;28;20437;-64
2023/06/19 06:40:10;;;;;;;0.63;0.63;;;;;;;23.16;83.92;95376.22;5072050;28;20453;-63
2023/06/19 06:42:40;;;;;;;0.40;0.30;;;;;;;22.94;83.91;95374.09;5071561;28;20438;-62
2023/06/19 06:45:09;;;;;;;0.77;0.77;;;;;;;22.46;83.50;95362.34;5071853;28;20445;-61
2023/06/19 06:47:39;;;;;;;0.50;0.50;;;;;;;22.73;86.45;95369.69;5072373;28;20971;-61
2023/06/19 06:50:09;;;;;;;4.30;0.70;;;;;;;22.79;81.79;95370.25;5071447;28;20884;-61
2023/06/19 06:52:38;;;;;;;0.83;0.77;;;;;;;23.39;80.64;95379.94;5071879;28;20833;-60
2023/06/19 06:55:07;;;;;;;0.60;0.50;;;;;;;24.02;79.59;95367.13;5071705;28;20969;-61
2023/06/19 06:57:35;;;;;;;1.37;0.63;;;;;;;23.40;81.48;95370.72;5071557;28;20450;-60
2023/06/19 07:00:04;;;;;;;0.63;0.50;;;;;;;23.97;77.63;95370.13;5071688;28;20639;-60
2023/06/19 07:02:32;;;;;;;2.20;0.67;;;;;;;24.07;76.39;95374.19;5071876;28;20441;-61
2023/06/19 07:05:02;;;;;;;0.43;0.43;;;;;;;24.52;73.09;95371.72;5071481;28;20992;-61
2023/06/19 07:07:31;;;;;;;0.40;0.40;;;;;;;25.14;71.76;95359.78;5071220;28;20812;-61
2023/06/19 07:09:59;;;;;;;0.33;0.30;;;;;;;25.31;71.67;95369.38;5070269;28;20473;-62
2023/06/19 07:12:27;;;;;;;0.50;0.50;;;;;;;24.55;66.93;95368.28;5071495;28;20496;-63
2023/06/19 07:14:56;;;;;;;0.60;0.37;;;;;;;24.80;67.06;95361.47;5070977;28;20449;-65
2023/06/19 07:17:24;;;;;;;0.43;0.40;;;;;;;25.01;66.75;95367.31;5071411;28;20434;-65
2023/06/19 07:19:53;;;;;;;0.50;0.40;;;;;;;25.16;62.62;95350.16;5071979;28;20437;-65
2023/06/19 07:22:22;;;;;;;0.97;0.57;;;;;;;24.95;61.60;95357.09;5071495;28;20856;-64
2023/06/19 07:24:51;;;;;;;0.70;0.70;;;;;;;25.57;64.12;95361.31;5071109;28;20952;-63
2023/06/19 07:27:19;;;;;;;0.50;0.50;;;;;;;26.28;60.14;95353.13;5070702;28;20525;-61
2023/06/19 07:29:47;;;;;;;0.90;0.90;;;;;;;25.51;59.56;95368.19;5071305;28;20433;-60
2023/06/19 07:32:16;;;;;;;0.57;0.50;;;;;;;25.54;61.93;95354.69;5071097;28;20482;-60
2023/06/19 07:34:44;;;;;;;0.60;0.60;;;;;;;26.05;61.13;95357.81;5071210;28;20442;-61
2023/06/19 07:37:17;;;;;;;1.33;0.70;;;;;;;25.80;62.89;95353.94;5071007;28;20437;-63
2023/06/19 07:39:49;;;;;;;0.73;0.73;;;;;;;25.57;62.04;95350.47;5070195;28;20453;-62
2023/06/19 07:42:18;;;;;;;0.40;0.30;;;;;;;26.25;62.55;95355.78;5070584;28;20443;-62
2023/06/19 07:44:47;;;;;;;0.57;0.57;;;;;;;25.98;60.50;95352.28;5070813;28;20442;-62
2023/06/19 07:47:17;;;;;;;0.60;0.60;;;;;;;26.00;61.32;95355.41;5070915;28;20953;-62
2023/06/19 07:49:46;;;;;;;0.40;0.30;;;;;;;27.15;59.49;95349.09;5070921;28;20437;-61
2023/06/19 07:52:14;;;;;;;0.67;0.67;;;;;;;26.95;61.15;95355.88;5068336;28;20501;-61
2023/06/19 07:54:52;;;;;;;0.87;0.87;;;;;;;26.70;59.79;95357.50;5071070;28;20467;-62
2023/06/19 07:57:21;;;;;;;1.70;0.60;;;;;;;26.62;58.43;95359.34;5070180;28;20494;-62
2023/06/19 07:59:50;;;;;;;0.53;0.50;;;;;;;26.71;59.58;95361.81;5070726;28;20438;-61
2023/06/19 08:02:19;;;;;;;0.47;0.43;;;;;;;27.23;58.95;95355.38;5071238;28;20495;-62
2023/06/19 08:04:47;;;;;;;0.70;0.53;;;;;;;27.66;60.25;95355.41;5071006;28;20932;-61
2023/06/19 08:07:16;;;;;;;0.50;0.50;;;;;;;28.10;59.59;95354.59;5075322;28;20445;-61
2023/06/19 08:09:44;;;;;;;0.40;0.30;;;;;;;28.14;59.46;95352.66;5074239;28;20514;-61
2023/06/19 08:12:20;;;;;;;0.60;0.60;;;;;;;27.91;57.52;95352.09;5074866;28;20468;-63
2023/06/19 08:14:48;;;;;;;0.70;0.67;;;;;;;27.53;56.59;95351.41;5074607;28;20437;-63
2023/06/19 08:17:17;;;;;;;0.67;0.43;;;;;;;27.86;57.84;95297.97;5074681;28;20528;-61
2023/06/19 08:19:45;;;;;;;0.60;0.50;;;;;;;27.76;56.77;95304.91;5075243;28;20953;-62
2023/06/19 08:22:14;;;;;;;0.63;0.50;;;;;;;27.77;57.18;95330.22;5075183;28;20445;-64
2023/06/19 08:24:42;;;;;;;0.40;0.30;;;;;;;28.66;56.37;95330.38;5074384;28;20494;-63
2023/06/19 08:27:10;;;;;;;0.70;0.50;;;;;;;29.26;55.83;95321.56;5074873;28;20961;-61
2023/06/19 08:29:40;;;;;;;0.60;0.60;;;;;;;28.64;53.73;95331.94;5074628;28;20465;-63
2023/06/19 08:32:09;;;;;;;0.43;0.30;;;;;;;29.28;54.08;95320.03;5074012;28;20433;-62
2023/06/19 08:34:38;;;;;;;0.77;0.57;;;;;;;28.70;52.65;95328.44;5074324;28;20438;-61
2023/06/19 08:37:07;;;;;;;0.47;0.40;;;;;;;27.67;55.06;95324.31;5074546;28;20437;-61
2023/06/19 08:39:35;;;;;;;0.70;0.60;;;;;;;27.85;53.85;95323.66;5075097;28;20437;-61
2023/06/19 08:42:04;;;;;;;1.57;0.67;;;;;;;27.85;53.98;95324.44;5061782;28;20856;-62
2023/06/19 08:44:34;;;;;;;0.70;0.63;;;;;;;27.85;53.47;95304.59;5073955;28;20502;-61
2023/06/19 08:47:08;;;;;;;0.30;0.20;;;;;;;28.63;54.58;95312.06;5074226;28;20528;-61
2023/06/19 08:49:37;;;;;;;0.50;0.30;;;;;;;28.83;53.92;95312.50;5074569;28;20886;-60
2023/06/19 08:52:06;;;;;;;1.37;1.30;;;;;;;29.57;50.73;95305.19;5073927;28;20441;-61
2023/06/19 08:54:43;;;;;;;0.40;0.40;;;;;;;30.25;51.17;95299.66;5074548;28;20894;-61
2023/06/19 08:57:13;;;;;;;0.40;0.30;;;;;;;30.52;50.73;95300.75;5073756;28;20458;-60
2023/06/19 08:59:48;;;;;;;0.80;0.73;;;;;;;30.69;49.15;95297.16;5073968;28;20533;-61
2023/06/19 09:02:18;;;;;;;0.60;0.60;;;;;;;30.16;49.67;95298.13;5050023;28;20498;-61
2023/06/19 09:04:47;;;;;;;0.50;0.50;;;;;;;29.85;46.55;95296.25;5073707;28;20465;-61
2023/06/19 09:07:15;;;;;;;0.90;0.53;;;;;;;29.76;46.86;95306.75;5073695;28;20838;-61
2023/06/19 09:09:47;;;;;;;0.90;0.90;;;;;;;28.98;50.27;95303.19;5073963;28;20485;-61
2023/06/19 09:12:16;;;;;;;0.40;0.30;;;;;;;29.63;48.02;95308.31;5073373;28;20520;-61
2023/06/19 09:14:45;;;;;;;0.60;0.60;;;;;;;29.01;43.68;95274.34;5073471;28;20507;-61
2023/06/19 09:17:19;;;;;;;0.50;0.50;;;;;;;30.39;45.18;95289.47;5072957;28;20437;-61
2023/06/19 09:19:55;;;;;;;2.20;0.40;;;;;;;29.65;48.20;95166.66;5073790;28;20445;-61
2023/06/19 09:22:25;;;;;;;0.50;0.50;;;;;;;30.57;48.92;95278.47;5073269;28;20440;-61
2023/06/19 09:24:53;;;;;;;0.97;0.33;;;;;;;30.71;47.88;95294.81;5048416;28;20441;-62
2023/06/19 09:27:23;;;;;;;0.77;0.70;;;;;;;30.82;45.73;95290.06;5073059;28;20978;-61
2023/06/19 09:29:52;;;;;;;0.80;0.80;;;;;;;30.44;49.44;95285.53;5073354;28;20947;-63
2023/06/19 09:32:22;;;;;;;1.83;1.80;;;;;;;30.94;46.20;95277.91;5073730;28;20862;-63
2023/06/19 09:34:53;;;;;;;0.40;0.30;;;;;;;32.12;44.72;95282.06;5073679;28;20479;-62
2023/06/19 09:37:24;;;;;;;6.13;0.37;;;;;;;32.15;42.84;95271.06;5073047;28;20472;-61
2023/06/19 09:39:54;;;;;;;0.50;0.43;;;;;;;32.15;45.44;95275.75;5073801;28;20491;-61
2023/06/19 09:42:29;;;;;;;0.40;0.30;;;;;;;32.33;46.52;95265.38;5073217;28;20832;-62
2023/06/19 09:45:02;;;;;;;0.60;0.60;;;;;;;31.94;43.49;95265.75;5073214;28;20444;-61
2023/06/19 09:47:33;;;;;;;0.60;0.40;;;;;;;32.51;44.44;95261.25;5047415;28;20441;-62
2023/06/19 09:50:04;;;;;;;0.50;0.50;;;;;;;31.89;41.92;95264.25;5073193;28;20468;-62
2023/06/19 09:52:33;;;;;;;3.93;3.03;;;;;;;31.20;43.50;95260.91;5073264;28;20502;-62
2023/06/19 09:55:05;;;;;;;0.67;0.57;;;;;;;31.25;44.70;95257.72;5072190;28;21016;-61
2023/06/19 09:57:34;;;;;;;2.20;0.50;;;;;;;31.54;44.25;95250.09;5072994;28;20528;-62
2023/06/19 10:00:11;;;;;;;1.00;0.60;;;;;;;31.86;44.24;95256.03;5072434;28;20933;-62
2023/06/19 10:02:40;;;;;;;0.80;0.80;;;;;;;31.98;44.51;95241.81;5072472;28;20441;-62
2023/06/19 10:05:13;;;;;;;0.60;0.60;;;;;;;31.94;45.29;95250.09;5072091;28;20443;-62
2023/06/19 10:07:43;;;;;;;0.50;0.50;;;;;;;31.36;45.65;95198.19;5072699;28;20437;-61
2023/06/19 10:10:23;;;;;;;0.50;0.50;;;;;;;31.07;46.68;95240.69;5072455;28;20856;-61
2023/06/19 10:12:52;;;;;;;0.60;0.60;;;;;;;30.52;47.61;95246.06;5072442;28;20444;-62
2023/06/19 10:15:22;;;;;;;1.57;0.67;;;;;;;30.47;48.42;95235.53;5072339;28;20992;-62
2023/06/19 10:17:51;;;;;;;0.53;0.50;;;;;;;31.49;46.81;95242.31;5072732;28;20523;-62
2023/06/19 10:20:27;;;;;;;0.80;0.60;;;;;;;32.46;45.98;95222.50;5072704;28;20826;-61
2023/06/19 10:23:01;;;;;;;0.40;0.40;;;;;;;32.61;47.03;95223.88;5072088;28;20447;-61
2023/06/19 10:25:33;;;;;;;0.40;0.30;;;;;;;32.89;49.33;95233.69;5072290;28;20445;-62
2023/06/19 10:28:02;;;;;;;0.50;0.50;;;;;;;32.43;45.71;95228.78;5071199;28;20441;-63
2023/06/19 10:30:31;;;;;;;0.60;0.43;;;;;;;32.64;48.31;95220.28;5072075;28;20455;-61
2023/06/19 10:33:00;;;;;;;5.03;0.50;;;;;;;33.36;44.99;95216.09;5072258;28;20992;-62
2023/06/19 10:35:30;;;;;;;0.70;0.63;;;;;;;33.09;45.11;95210.63;5071855;28;20476;-61
2023/06/19 10:37:58;;;;;;;0.80;0.70;;;;;;;33.18;46.79;95205.41;5072143;28;20473;-62
2023/06/19 10:40:26;;;;;;;0.70;0.60;;;;;;;33.43;43.98;95212.44;5071648;28;20437;-62
2023/06/19 10:42:54;;;;;;;0.77;0.57;;;;;;;33.09;44.71;95205.13;5071831;28;20793;-62
2023/06/19 10:45:28;;;;;;;0.40;0.40;;;;;;;32.81;44.04;95196.53;5071697;28;20437;-63
2023/06/19 10:48:02;;;;;;;0.80;0.80;;;;;;;32.99;44.95;95199.81;5072268;28;20755;-64
2023/06/19 10:50:35;;;;;;;0.57;0.57;;;;;;;33.15;43.49;95194.47;5072243;28;20448;-63
2023/06/19 10:53:03;;;;;;;0.50;0.40;;;;;;;32.32;45.44;95203.44;5072893;28;20866;-63
2023/06/19 10:55:32;;;;;;;1.13;1.13;;;;;;;33.01;46.05;95200.16;5078363;28;20482;-60
2023/06/19 10:58:03;;;;;;;0.40;0.30;;;;;;;33.79;44.56;95191.41;5071848;28;20444;-61
2023/06/19 11:00:35;;;;;;;0.70;0.70;;;;;;;34.59;44.10;95196.50;5071907;28;20429;-61
2023/06/19 11:03:05;;;;;;;0.73;0.40;;;;;;;34.82;43.38;95193.63;5071556;28;20472;-61
2023/06/19 11:05:35;;;;;;;0.50;0.40;;;;;;;34.28;42.52;95195.94;5071954;28;20444;-61
2023/06/19 11:08:03;;;;;;;0.80;0.70;;;;;;;33.54;41.80;95200.09;5071695;28;20808;-61
2023/06/19 11:10:32;;;;;;;1.13;1.13;;;;;;;32.33;41.76;95205.03;5071244;28;20481;-61
2023/06/19 11:13:00;;;;;;;0.37;0.30;;;;;;;33.31;43.86;95191.06;5071364;28;20449;-63
2023/06/19 11:15:33;;;;;;;0.70;0.50;;;;;;;34.40;43.52;95183.53;5071668;28;20484;-62
2023/06/19 11:18:04;;;;;;;0.47;0.47;;;;;;;34.15;44.08;95184.06;5070989;28;20488;-61
2023/06/19 11:20:43;;;;;;;0.47;0.47;;;;;;;34.77;39.85;95180.38;5071054;28;20447;-61
2023/06/19 11:23:12;;;;;;;0.90;0.50;;;;;;;34.60;38.85;95189.81;5071527;28;20206;-62
2023/06/19 11:25:41;;;;;;;0.60;0.60;;;;;;;34.91;38.23;95191.06;5070867;28;20606;-61
2023/06/19 11:28:14;;;;;;;0.73;0.67;;;;;;;33.78;40.40;95190.63;5071401;28;20190;-61
2023/06/19 11:30:43;;;;;;;1.60;0.70;;;;;;;32.64;45.12;95181.88;5071114;28;20206;-62
2023/06/19 11:33:22;;;;;;;1.10;0.57;;;;;;;31.42;47.44;95185.63;5071210;28;20275;-63
2023/06/19 11:35:53;;;;;;;0.50;0.40;;;;;;;31.08;47.08;95187.47;5071016;28;20709;-62
2023/06/19 11:38:23;;;;;;;0.70;0.30;;;;;;;31.13;46.36;95190.56;5070760;28;20490;-63
2023/06/19 11:40:52;;;;;;;0.77;0.40;;;;;;;30.77;48.73;95176.31;5071031;28;20524;-63